Time;durP1;ratioP1;P1;durP2;ratioP2;P2;SDS_P1;SDS_P2;PMS_P1;PMS_P2;Temp;Humidity;BMP_temperature;BMP_pressure;BME280_temperature;BME280_humidity;BME280_pressure;Samples;Min_cycle;Max_cycle;Signal;HPM_P1;HPM_P2
2023/05/08 00:05:21;;;;;;;17.90;11.10;;;;;;;2.89;80.70;99661.31;437445;1250;98046;-41
2023/05/08 00:15:29;;;;;;;10.00;8.20;;;;;;;2.66;80.65;99661.05;437650;1247;107127;-41
2023/05/08 00:25:42;;;;;;;13.70;8.10;;;;;;;2.54;80.83;99659.11;437448;1250;99181;-42
2023/05/08 00:35:46;;;;;;;11.40;7.70;;;;;;;2.53;81.00;99656.79;437457;1250;111471;-41
2023/05/08 00:45:50;;;;;;;7.90;6.40;;;;;;;2.51;81.16;99660.80;437329;1250;108873;-42
2023/05/08 00:55:55;;;;;;;15.80;11.20;;;;;;;2.49;81.40;99665.73;437623;1247;97997;-41
2023/05/08 01:05:59;;;;;;;13.20;9.60;;;;;;;2.48;81.77;99675.42;437689;1245;107064;-42
2023/05/08 01:16:02;;;;;;;9.90;7.60;;;;;;;2.43;81.69;99683.35;438217;1246;99247;-40
2023/05/08 01:26:40;;;;;;;11.30;7.80;;;;;;;2.45;81.72;99697.79;437271;1250;111797;-43
2023/05/08 01:36:44;;;;;;;9.60;5.50;;;;;;;2.50;82.00;99709.17;437410;1247;109297;-41
2023/05/08 01:46:47;;;;;;;8.10;5.40;;;;;;;2.64;82.13;99715.91;437384;1248;98014;-42
2023/05/08 01:56:54;;;;;;;6.50;4.20;;;;;;;2.75;82.49;99705.38;437334;1250;109041;-41
2023/05/08 02:06:59;;;;;;;7.00;5.30;;;;;;;2.70;82.89;99710.45;437519;1247;98385;-42
2023/05/08 02:17:08;;;;;;;8.50;5.60;;;;;;;2.64;82.78;99710.56;437403;1250;111213;-42
2023/05/08 02:27:12;;;;;;;6.10;5.40;;;;;;;2.47;82.95;99717.91;437451;1247;108340;-40
2023/05/08 02:37:16;;;;;;;6.50;5.20;;;;;;;2.31;83.07;99716.56;437439;1250;99279;-41
2023/05/08 02:47:25;;;;;;;9.70;6.90;;;;;;;2.28;83.07;99723.88;437365;1250;108071;-41
2023/05/08 02:57:31;;;;;;;8.10;6.00;;;;;;;2.30;83.24;99724.52;437155;1247;98280;-42
2023/05/08 03:07:37;;;;;;;10.90;7.70;;;;;;;2.27;82.99;99724.48;437551;1250;111418;-40
2023/05/08 03:17:44;;;;;;;12.50;8.70;;;;;;;2.18;83.16;99724.12;437332;1248;108035;-40
2023/05/08 03:27:49;;;;;;;7.80;6.40;;;;;;;2.14;82.83;99719.84;437386;1250;99323;-40
2023/05/08 03:37:54;;;;;;;7.50;5.30;;;;;;;2.32;82.92;99727.79;437394;1250;107522;-42
2023/05/08 03:47:59;;;;;;;8.00;6.20;;;;;;;3.06;82.78;99726.08;437042;1250;436298;-42
2023/05/08 04:18:21;;;;;;;8.40;7.60;;;;;;;6.59;80.05;99749.00;437492;1247;99358;-42
2023/05/08 04:28:30;;;;;;;13.70;8.20;;;;;;;5.51;79.54;99761.52;437349;1250;106952;-41
2023/05/08 04:48:40;;;;;;;9.90;6.90;;;;;;;3.49;81.24;99784.80;437565;1247;110179;-42
2023/05/08 04:58:44;;;;;;;9.00;7.10;;;;;;;3.27;81.76;99805.40;437510;1246;108079;-42
2023/05/08 05:08:48;;;;;;;8.50;6.10;;;;;;;3.17;82.12;99821.60;437266;1247;99215;-43
2023/05/08 05:18:52;;;;;;;12.00;9.20;;;;;;;3.20;82.34;99829.95;437453;1250;109960;-42
2023/05/08 05:28:55;;;;;;;6.90;6.00;;;;;;;3.37;82.55;99835.78;437566;1251;99224;-42
2023/05/08 05:39:00;;;;;;;11.20;7.70;;;;;;;3.67;82.51;99834.06;437583;1250;111801;-41
2023/05/08 05:49:04;;;;;;;12.80;9.10;;;;;;;4.02;82.59;99838.70;437604;1247;107205;-41
2023/05/08 05:59:12;;;;;;;9.10;5.20;;;;;;;4.23;81.83;99851.45;437623;1246;99205;-41
2023/05/08 06:19:19;;;;;;;10.90;5.70;;;;;;;4.74;81.74;99864.12;437577;1247;98808;-42
2023/05/08 06:29:23;;;;;;;8.30;5.70;;;;;;;5.34;80.96;99869.90;437530;1250;111776;-42
2023/05/08 06:39:27;;;;;;;10.50;6.80;;;;;;;5.91;80.46;99867.84;437507;1250;107115;-40
2023/05/08 06:49:31;;;;;;;7.70;5.90;;;;;;;6.94;78.58;99869.77;437605;1250;99215;-43
2023/05/08 06:59:35;;;;;;;9.50;6.10;;;;;;;7.95;77.89;99865.60;437459;1250;99231;-41
2023/05/08 07:09:39;;;;;;;12.70;7.20;;;;;;;8.06;75.18;99875.71;437631;1247;107357;-40
2023/05/08 07:20:09;;;;;;;9.40;6.20;;;;;;;8.50;74.17;99879.91;437504;1250;99177;-42
2023/05/08 07:30:15;;;;;;;7.80;5.50;;;;;;;9.12;71.65;99883.40;437539;1250;111127;-42
2023/05/08 07:40:18;;;;;;;9.30;5.80;;;;;;;9.18;69.77;99875.09;437386;1250;107731;-43
2023/05/08 07:50:23;;;;;;;8.90;5.10;;;;;;;8.91;69.06;99878.63;437658;1250;99284;-43
2023/05/08 08:00:51;;;;;;;6.60;4.60;;;;;;;9.74;68.58;99877.21;437584;1250;97973;-42
2023/05/08 08:10:56;;;;;;;9.80;4.80;;;;;;;10.03;67.29;99873.05;437457;1250;108555;-45
2023/05/08 08:21:00;;;;;;;4.80;3.60;;;;;;;10.09;66.75;99873.48;437478;1250;98004;-42
2023/05/08 08:31:04;;;;;;;7.90;3.60;;;;;;;9.79;65.33;99870.95;437483;1250;108761;-41
2023/05/08 08:41:08;;;;;;;6.10;3.90;;;;;;;9.54;63.41;99878.67;437522;1250;98690;-44
2023/05/08 08:51:15;;;;;;;6.60;3.50;;;;;;;9.61;62.92;99868.34;437476;1248;110969;-42
2023/05/08 09:01:19;;;;;;;6.80;3.30;;;;;;;10.20;62.17;99870.69;437450;1250;107501;-42
2023/05/08 09:11:22;;;;;;;6.60;3.50;;;;;;;10.39;60.59;99875.55;437517;1246;99215;-41
2023/05/08 09:21:27;;;;;;;10.50;3.50;;;;;;;10.44;59.37;99872.51;437533;1250;108038;-42
2023/05/08 09:31:34;;;;;;;9.10;3.00;;;;;;;11.12;58.14;99873.09;437573;1250;99253;-47
2023/05/08 09:41:38;;;;;;;9.10;4.20;;;;;;;11.22;56.77;99866.11;437582;1250;111016;-42
2023/05/08 10:01:56;;;;;;;6.90;3.20;;;;;;;10.82;55.95;99856.88;437539;1250;97998;-42
2023/05/08 10:22:10;;;;;;;6.00;3.60;;;;;;;12.69;55.56;99838.78;437459;1248;97994;-41
2023/05/08 10:32:15;;;;;;;6.00;3.30;;;;;;;12.31;54.00;99840.17;437438;1250;112015;-42
2023/05/08 10:42:19;;;;;;;6.20;3.50;;;;;;;11.99;54.14;99839.68;437672;1250;107837;-42
2023/05/08 10:52:23;;;;;;;4.50;3.20;;;;;;;11.57;53.70;99832.46;437300;1247;99185;-43
2023/05/08 11:02:35;;;;;;;3.60;2.60;;;;;;;12.00;52.92;99824.60;437407;1250;108684;-41
2023/05/08 11:12:48;;;;;;;8.80;3.00;;;;;;;12.41;52.35;99822.38;437261;1250;99188;-42
2023/05/08 11:22:51;;;;;;;4.70;3.30;;;;;;;12.31;51.72;99815.49;437465;1250;111159;-41
2023/05/08 11:43:59;;;;;;;4.10;2.20;;;;;;;12.72;51.21;99797.32;436402;1251;98305;-41
2023/05/08 11:54:03;;;;;;;4.00;2.40;;;;;;;13.05;50.28;99801.70;436088;1261;107566;-43
2023/05/08 12:04:07;;;;;;;3.80;2.50;;;;;;;12.98;49.26;99802.27;436376;1253;98787;-42
2023/05/08 12:14:12;;;;;;;5.20;2.30;;;;;;;13.01;49.90;99795.40;436552;1248;110885;-44
2023/05/08 12:34:19;;;;;;;4.30;2.10;;;;;;;12.82;49.09;99800.64;436494;1247;99211;-42
2023/05/08 12:44:24;;;;;;;4.40;2.90;;;;;;;13.15;48.31;99796.70;436334;1253;108400;-42
2023/05/08 12:54:32;;;;;;;7.20;2.00;;;;;;;13.47;48.45;99793.00;436308;1250;99857;-42
2023/05/08 13:04:36;;;;;;;2.70;1.60;;;;;;;13.74;48.11;99784.86;436487;1253;111229;-41
2023/05/08 13:14:40;;;;;;;3.30;2.20;;;;;;;13.88;47.00;99772.81;436571;1253;107605;-44
2023/05/08 13:24:45;;;;;;;6.50;2.10;;;;;;;13.78;46.98;99774.08;436314;1254;99228;-43
2023/05/08 13:44:54;;;;;;;9.50;2.80;;;;;;;13.68;46.60;99775.35;436400;1254;99244;-43
2023/05/08 13:55:01;;;;;;;2.50;1.80;;;;;;;13.15;46.48;99766.27;436573;1258;110824;-42
2023/05/08 14:05:08;;;;;;;4.30;2.30;;;;;;;13.04;46.98;99763.80;436584;1254;107976;-42
2023/05/08 14:15:11;;;;;;;5.40;2.40;;;;;;;12.73;47.03;99764.09;436453;1248;97906;-42
2023/05/08 14:25:15;;;;;;;2.00;1.80;;;;;;;12.52;47.37;99771.25;436248;1254;109039;-43
2023/05/08 14:35:18;;;;;;;5.20;2.50;;;;;;;12.94;47.48;99759.23;436340;1253;99649;-41
2023/05/08 14:45:21;;;;;;;4.80;2.90;;;;;;;12.92;46.31;99764.80;436257;1253;112161;-41
2023/05/08 14:55:25;;;;;;;3.60;2.20;;;;;;;13.02;47.16;99760.92;436322;1252;107570;-42
2023/05/08 15:05:30;;;;;;;3.80;2.40;;;;;;;13.23;46.27;99753.30;436598;1254;99211;-42
2023/05/08 15:15:33;;;;;;;6.70;2.80;;;;;;;12.83;46.64;99760.14;436552;1255;107905;-43
2023/05/08 15:25:36;;;;;;;5.30;1.80;;;;;;;12.87;46.61;99762.43;436666;1254;99213;-43
2023/05/08 15:35:43;;;;;;;4.30;2.40;;;;;;;13.06;46.13;99751.86;436536;1253;111548;-42
2023/05/08 15:45:46;;;;;;;4.30;2.50;;;;;;;12.52;46.30;99760.64;436270;1255;379140;-41
2023/05/08 15:55:51;;;;;;;5.60;3.10;;;;;;;12.38;46.74;99755.17;436574;1251;99243;-44
2023/05/08 16:36:16;;;;;;;7.30;3.40;;;;;;;12.09;46.80;99737.48;436525;1251;105564;-42
2023/05/08 16:46:19;;;;;;;9.10;3.70;;;;;;;11.91;46.65;99746.41;436486;1254;99626;-42
2023/05/08 16:56:33;;;;;;;10.00;5.50;;;;;;;11.42;47.37;99758.54;436326;1248;107282;-43
2023/05/08 17:16:42;;;;;;;5.10;3.60;;;;;;;11.16;48.38;99761.33;436284;1247;109900;-42
2023/05/08 17:26:46;;;;;;;7.00;3.00;;;;;;;11.13;48.58;99756.48;436630;1254;108495;-42
2023/05/08 17:36:50;;;;;;;6.10;2.50;;;;;;;10.98;48.22;99763.81;436489;1261;98795;-42
2023/05/08 17:46:54;;;;;;;4.20;2.50;;;;;;;10.74;48.62;99758.15;436248;1251;106511;-42
2023/05/08 17:56:57;;;;;;;4.20;3.40;;;;;;;10.53;49.04;99763.91;436189;1251;99224;-43
2023/05/08 18:07:05;;;;;;;34.20;14.00;;;;;;;10.32;49.53;99774.61;436479;1248;111006;-42
2023/05/08 18:27:14;;;;;;;7.30;4.50;;;;;;;9.80;50.84;99783.83;436462;1252;99237;-41
2023/05/08 18:37:17;;;;;;;23.40;9.60;;;;;;;9.52;51.37;99792.70;436449;1251;107484;-44
2023/05/08 18:47:21;;;;;;;34.50;13.20;;;;;;;9.23;51.98;99797.39;436554;1250;99213;-42
2023/05/08 18:57:26;;;;;;;67.60;22.70;;;;;;;8.90;52.59;99797.57;436615;1248;111273;-43
2023/05/08 19:07:30;;;;;;;95.30;29.90;;;;;;;8.58;53.24;99801.79;436406;1247;108340;-43
2023/05/08 19:17:35;;;;;;;57.30;21.00;;;;;;;8.18;54.01;99803.29;436377;1253;98040;-43
2023/05/08 19:27:39;;;;;;;70.90;26.00;;;;;;;7.80;54.85;99802.94;436502;1248;111032;-45
2023/05/08 19:37:43;;;;;;;63.40;23.50;;;;;;;7.45;55.76;99807.39;436358;1253;98401;-44
2023/05/08 19:47:50;;;;;;;52.60;21.00;;;;;;;7.08;56.51;99807.09;436343;1248;99227;-42
2023/05/08 19:57:54;;;;;;;49.20;19.10;;;;;;;6.82;57.37;99803.83;436508;1251;111943;-42
2023/05/08 20:07:58;;;;;;;71.80;25.60;;;;;;;6.66;57.80;99800.06;436676;1247;106259;-43
2023/05/08 20:18:01;;;;;;;27.90;14.10;;;;;;;6.48;58.60;99794.81;436529;1251;98009;-44
2023/05/08 20:28:09;;;;;;;29.40;13.70;;;;;;;6.32;59.24;99793.17;436256;1252;107311;-43
2023/05/08 20:48:20;;;;;;;39.90;17.00;;;;;;;5.86;60.17;99782.41;436400;1247;112152;-43
2023/05/08 20:58:34;;;;;;;41.10;19.20;;;;;;;5.62;60.74;99782.45;436375;1253;107529;-42
2023/05/08 21:08:39;;;;;;;45.50;19.60;;;;;;;5.42;61.31;99778.28;436470;1251;99240;-42
2023/05/08 21:18:43;;;;;;;72.80;26.40;;;;;;;5.41;61.79;99775.38;436295;1264;108455;-49
2023/05/08 21:28:46;;;;;;;88.90;28.30;;;;;;;5.37;62.25;99771.23;436452;1247;97996;-42
2023/05/08 21:48:58;;;;;;;78.90;26.90;;;;;;;4.99;63.13;99771.33;436339;1253;107292;-42
2023/05/08 21:59:02;;;;;;;72.20;26.80;;;;;;;4.78;63.69;99765.94;436533;1251;99224;-41
2023/05/08 22:09:05;;;;;;;104.40;33.40;;;;;;;4.62;64.12;99767.67;436166;1252;98808;-43
2023/05/08 22:29:17;;;;;;;90.10;30.50;;;;;;;4.56;64.83;99749.80;436641;1254;99255;-41
2023/05/08 22:39:21;;;;;;;105.40;34.50;;;;;;;4.61;65.28;99741.86;436272;1253;109400;-45
2023/05/08 22:59:30;;;;;;;50.70;21.30;;;;;;;4.44;65.76;99733.90;436314;1247;110444;-42
2023/05/08 23:09:34;;;;;;;43.20;19.20;;;;;;;4.36;65.92;99731.88;436376;1251;109276;-44
2023/05/08 23:19:38;;;;;;;24.20;13.40;;;;;;;4.25;66.09;99731.54;436359;1261;99206;-41
2023/05/08 23:29:45;;;;;;;21.00;10.90;;;;;;;4.21;66.43;99723.23;436325;1247;107888;-42
2023/05/08 23:39:52;;;;;;;20.20;9.80;;;;;;;4.23;66.73;99724.12;436476;1253;98772;-42
2023/05/08 23:49:56;;;;;;;25.90;12.20;;;;;;;4.25;67.19;99724.40;436346;1254;111024;-41
